BAW772 EGLL-ESSA
Flight info
| Callsign | BAW772 |
|---|---|
| Flight time | 2h 2m |
| Altitude | 37000 |
| Route | BPK6J BPK Q295 SOMVA DCT MAVAS DCT ANDIK N873 JUIST DCT DOSUR DCT MIKNA N851 PELUP Z226 NILUG NILUG3T |
| Aircraft | A320/M-SDE3FGIJ1KRWXY/SB1 |
Departure
| Time | 2026-05-04 11:02 |
|---|---|
| Airport | London Heathrow Airport (EGLL) |
Arrival
| Time | 2026-05-04 13:04 |
|---|---|
| Airport | Stockholm-Arlanda Airport (ESSA) |
| Time | Latitude | Longitude | Altitude | Speed | Heading |
|---|---|---|---|---|---|
| 2026-05-04 10:08 | 51.47417 | -0.48953 | 86 ft | 0 kts | 180° |
| 2026-05-04 10:44 | 51.47447 | -0.48954 | 88 ft | 3 kts | 182° |
| 2026-05-04 10:45 | 51.47462 | -0.48939 | 87 ft | 4 kts | 230° |
| 2026-05-04 10:45 | 51.47477 | -0.48915 | 87 ft | 4 kts | 209° |
| 2026-05-04 10:45 | 51.47488 | -0.48907 | 89 ft | 4 kts | 153° |
| 2026-05-04 10:45 | 51.47505 | -0.48930 | 88 ft | 2 kts | 135° |
| 2026-05-04 10:46 | 51.47507 | -0.48933 | 91 ft | 0 kts | 135° |
| 2026-05-04 10:49 | 51.47506 | -0.48931 | 88 ft | 2 kts | 135° |
| 2026-05-04 10:50 | 51.47505 | -0.48930 | 88 ft | 0 kts | 135° |
| 2026-05-04 10:51 | 51.47486 | -0.48669 | 87 ft | 14 kts | 89° |
| 2026-05-04 10:52 | 51.47481 | -0.48505 | 90 ft | 15 kts | 111° |
| 2026-05-04 10:52 | 51.47386 | -0.48475 | 86 ft | 15 kts | 180° |
| 2026-05-04 10:52 | 51.47281 | -0.48474 | 86 ft | 15 kts | 180° |
| 2026-05-04 10:54 | 51.46653 | -0.48105 | 86 ft | 19 kts | 90° |
| 2026-05-04 10:54 | 51.46653 | -0.47876 | 86 ft | 22 kts | 89° |
| 2026-05-04 10:56 | 51.46659 | -0.46436 | 89 ft | 20 kts | 90° |
| 2026-05-04 10:56 | 51.46659 | -0.46205 | 89 ft | 21 kts | 90° |
| 2026-05-04 10:56 | 51.46661 | -0.45962 | 86 ft | 22 kts | 89° |
| 2026-05-04 10:57 | 51.46661 | -0.45704 | 86 ft | 24 kts | 90° |
| 2026-05-04 10:57 | 51.46662 | -0.45436 | 86 ft | 21 kts | 89° |
| 2026-05-04 10:57 | 51.46663 | -0.45213 | 86 ft | 16 kts | 90° |
| 2026-05-04 10:57 | 51.46663 | -0.45019 | 86 ft | 19 kts | 89° |
| 2026-05-04 10:58 | 51.46664 | -0.44799 | 87 ft | 20 kts | 90° |
| 2026-05-04 10:58 | 51.46665 | -0.44558 | 86 ft | 23 kts | 89° |
| 2026-05-04 10:58 | 51.46665 | -0.44338 | 86 ft | 17 kts | 92° |
| 2026-05-04 10:58 | 51.46666 | -0.44189 | 86 ft | 13 kts | 90° |
| 2026-05-04 10:59 | 51.46634 | -0.44053 | 89 ft | 14 kts | 159° |
| 2026-05-04 10:59 | 51.46613 | -0.44052 | 90 ft | 0 kts | 181° |
| 2026-05-04 11:00 | 51.46612 | -0.44052 | 86 ft | 1 kts | 181° |
| 2026-05-04 11:01 | 51.46488 | -0.45857 | 86 ft | 135 kts | 270° |
| 2026-05-04 11:02 | 51.46473 | -0.47527 | 305 ft | 159 kts | 271° |
| 2026-05-04 11:02 | 51.46441 | -0.49298 | 962 ft | 159 kts | 271° |
| 2026-05-04 11:05 | 51.61841 | -0.52711 | 10589 ft | 328 kts | 55° |
| 2026-05-04 11:06 | 51.63041 | -0.49466 | 10983 ft | 345 kts | 64° |
| 2026-05-04 11:06 | 51.64137 | -0.45987 | 11699 ft | 351 kts | 64° |
| 2026-05-04 11:06 | 51.65241 | -0.42440 | 12488 ft | 356 kts | 64° |
| 2026-05-04 11:06 | 51.66348 | -0.38860 | 13344 ft | 360 kts | 64° |
| 2026-05-04 11:08 | 51.74364 | -0.12520 | 18378 ft | 387 kts | 70° |
| 2026-05-04 11:10 | 51.77381 | 0.18421 | 22647 ft | 415 kts | 84° |
| 2026-05-04 11:12 | 51.80062 | 0.51856 | 26380 ft | 443 kts | 86° |
| 2026-05-04 11:12 | 51.80447 | 0.56815 | 26859 ft | 447 kts | 86° |
| 2026-05-04 11:12 | 51.80849 | 0.61817 | 27336 ft | 452 kts | 83° |
| 2026-05-04 11:12 | 51.81585 | 0.66794 | 27747 ft | 461 kts | 74° |
| 2026-05-04 11:13 | 51.82770 | 0.71643 | 28195 ft | 467 kts | 69° |
| 2026-05-04 11:13 | 51.84043 | 0.76486 | 28665 ft | 470 kts | 69° |
| 2026-05-04 11:13 | 51.85318 | 0.81379 | 29102 ft | 474 kts | 70° |
| 2026-05-04 11:13 | 51.86596 | 0.86318 | 29541 ft | 477 kts | 70° |
| 2026-05-04 11:14 | 51.87880 | 0.91298 | 29947 ft | 480 kts | 70° |
| 2026-05-04 11:14 | 51.89165 | 0.96302 | 30344 ft | 483 kts | 70° |
| 2026-05-04 11:14 | 51.90452 | 1.01310 | 30823 ft | 482 kts | 70° |
| 2026-05-04 11:16 | 51.99242 | 1.35917 | 34735 ft | 465 kts | 69° |
| 2026-05-04 11:16 | 52.00481 | 1.40827 | 35207 ft | 464 kts | 69° |
| 2026-05-04 11:16 | 52.01699 | 1.45662 | 35661 ft | 462 kts | 69° |
| 2026-05-04 11:17 | 52.02895 | 1.50429 | 36055 ft | 462 kts | 69° |
| 2026-05-04 11:17 | 52.04119 | 1.55328 | 36449 ft | 462 kts | 69° |
| 2026-05-04 11:19 | 52.12531 | 1.89233 | 37030 ft | 464 kts | 69° |
| 2026-05-04 11:19 | 52.13729 | 1.94113 | 37029 ft | 464 kts | 69° |
| 2026-05-04 11:19 | 52.16127 | 2.03914 | 37028 ft | 466 kts | 69° |
| 2026-05-04 11:20 | 52.18518 | 2.13711 | 37035 ft | 467 kts | 70° |
| 2026-05-04 11:20 | 52.20911 | 2.23549 | 37035 ft | 467 kts | 70° |
| 2026-05-04 11:22 | 52.30409 | 2.63092 | 37038 ft | 468 kts | 71° |
| 2026-05-04 11:23 | 52.32291 | 2.73259 | 37039 ft | 467 kts | 75° |
| 2026-05-04 11:25 | 52.38567 | 3.09073 | 37012 ft | 470 kts | 76° |
| 2026-05-04 11:25 | 52.40334 | 3.19387 | 37008 ft | 471 kts | 76° |
| 2026-05-04 11:27 | 52.47969 | 3.64345 | 37023 ft | 475 kts | 76° |
| 2026-05-04 11:28 | 52.49717 | 3.74792 | 37026 ft | 474 kts | 76° |
| 2026-05-04 11:28 | 52.51448 | 3.85231 | 37029 ft | 474 kts | 76° |
| 2026-05-04 11:29 | 52.53175 | 3.95700 | 37032 ft | 474 kts | 76° |
| 2026-05-04 11:29 | 52.54886 | 4.06165 | 37004 ft | 475 kts | 76° |
| 2026-05-04 11:33 | 52.66710 | 4.80089 | 37004 ft | 477 kts | 77° |
| 2026-05-04 11:33 | 52.68357 | 4.90685 | 37026 ft | 477 kts | 77° |
| 2026-05-04 11:34 | 52.69996 | 5.01265 | 37023 ft | 476 kts | 77° |
| 2026-05-04 11:34 | 52.71626 | 5.11849 | 37003 ft | 477 kts | 77° |
| 2026-05-04 11:35 | 52.73324 | 5.22423 | 37004 ft | 478 kts | 71° |
| 2026-05-04 11:35 | 52.76363 | 5.32143 | 37004 ft | 478 kts | 53° |
| 2026-05-04 11:36 | 52.80459 | 5.40791 | 37001 ft | 478 kts | 51° |
| 2026-05-04 11:36 | 52.84559 | 5.49475 | 37010 ft | 479 kts | 51° |
| 2026-05-04 11:37 | 52.88641 | 5.58203 | 37020 ft | 480 kts | 52° |
| 2026-05-04 11:37 | 52.92717 | 5.66950 | 37025 ft | 480 kts | 52° |
| 2026-05-04 11:38 | 52.96765 | 5.75671 | 37026 ft | 480 kts | 52° |
| 2026-05-04 11:38 | 53.00842 | 5.84460 | 37028 ft | 480 kts | 52° |
| 2026-05-04 11:39 | 53.04915 | 5.93253 | 37033 ft | 480 kts | 52° |
| 2026-05-04 11:41 | 53.19102 | 6.24186 | 37016 ft | 480 kts | 52° |
| 2026-05-04 11:41 | 53.23145 | 6.33085 | 37011 ft | 481 kts | 52° |
| 2026-05-04 11:42 | 53.27185 | 6.41984 | 37003 ft | 481 kts | 52° |
| 2026-05-04 11:42 | 53.31226 | 6.50910 | 37012 ft | 481 kts | 52° |
| 2026-05-04 11:43 | 53.35379 | 6.59680 | 37014 ft | 480 kts | 44° |
| 2026-05-04 11:43 | 53.40262 | 6.67279 | 37012 ft | 479 kts | 41° |
| 2026-05-04 11:44 | 53.45190 | 6.74826 | 37003 ft | 480 kts | 40° |
| 2026-05-04 11:44 | 53.50111 | 6.82421 | 37001 ft | 481 kts | 40° |
| 2026-05-04 11:45 | 53.55024 | 6.90058 | 37040 ft | 482 kts | 41° |
| 2026-05-04 11:45 | 53.59884 | 6.97833 | 37042 ft | 482 kts | 43° |
| 2026-05-04 11:46 | 53.64609 | 7.05836 | 37044 ft | 481 kts | 44° |
| 2026-05-04 11:46 | 53.69292 | 7.13894 | 37041 ft | 481 kts | 44° |
| 2026-05-04 11:47 | 53.73999 | 7.21916 | 37043 ft | 481 kts | 43° |
| 2026-05-04 11:47 | 53.78731 | 7.29907 | 37061 ft | 481 kts | 43° |
| 2026-05-04 11:48 | 53.83454 | 7.37905 | 37050 ft | 480 kts | 43° |
| 2026-05-04 11:48 | 53.88166 | 7.45938 | 37045 ft | 481 kts | 43° |
| 2026-05-04 11:49 | 53.92861 | 7.54004 | 37048 ft | 481 kts | 44° |
| 2026-05-04 11:49 | 53.97561 | 7.62102 | 37045 ft | 481 kts | 44° |
| 2026-05-04 11:50 | 54.02251 | 7.70212 | 37064 ft | 481 kts | 44° |
| 2026-05-04 11:50 | 54.06934 | 7.78337 | 37060 ft | 481 kts | 44° |
| 2026-05-04 11:51 | 54.11613 | 7.86475 | 37057 ft | 480 kts | 44° |
| 2026-05-04 11:51 | 54.16283 | 7.94610 | 37053 ft | 480 kts | 44° |
| 2026-05-04 11:52 | 54.20926 | 8.02712 | 37040 ft | 480 kts | 44° |
| 2026-05-04 11:52 | 54.25586 | 8.10894 | 37048 ft | 481 kts | 44° |
| 2026-05-04 11:53 | 54.30242 | 8.19106 | 37042 ft | 481 kts | 44° |
| 2026-05-04 11:53 | 54.34888 | 8.27350 | 37040 ft | 481 kts | 44° |
| 2026-05-04 11:55 | 54.53445 | 8.60437 | 37038 ft | 480 kts | 44° |
| 2026-05-04 11:56 | 54.58058 | 8.68754 | 37021 ft | 480 kts | 44° |
| 2026-05-04 11:56 | 54.62679 | 8.77092 | 37019 ft | 481 kts | 44° |
| 2026-05-04 11:57 | 54.67300 | 8.85456 | 37015 ft | 481 kts | 44° |
| 2026-05-04 11:57 | 54.71909 | 8.93840 | 37027 ft | 481 kts | 44° |
| 2026-05-04 11:58 | 54.76506 | 9.02251 | 37012 ft | 481 kts | 44° |
| 2026-05-04 11:58 | 54.81108 | 9.10674 | 37011 ft | 481 kts | 44° |
| 2026-05-04 11:59 | 54.85698 | 9.19106 | 36991 ft | 481 kts | 44° |
| 2026-05-04 11:59 | 54.90221 | 9.27669 | 36991 ft | 481 kts | 46° |
| 2026-05-04 12:00 | 54.94670 | 9.36359 | 36993 ft | 481 kts | 46° |
| 2026-05-04 12:00 | 54.99118 | 9.45072 | 36992 ft | 481 kts | 46° |
| 2026-05-04 12:01 | 55.03582 | 9.53776 | 36996 ft | 482 kts | 46° |
| 2026-05-04 12:02 | 55.19157 | 9.84353 | 37002 ft | 482 kts | 46° |
| 2026-05-04 12:03 | 55.23599 | 9.93160 | 36995 ft | 482 kts | 46° |
| 2026-05-04 12:03 | 55.28033 | 10.01989 | 36974 ft | 483 kts | 46° |
| 2026-05-04 12:04 | 55.32470 | 10.10854 | 36971 ft | 484 kts | 46° |
| 2026-05-04 12:04 | 55.36907 | 10.19747 | 36998 ft | 484 kts | 46° |
| 2026-05-04 12:05 | 55.41342 | 10.28641 | 36984 ft | 484 kts | 46° |
| 2026-05-04 12:05 | 55.45768 | 10.37569 | 36990 ft | 484 kts | 46° |
| 2026-05-04 12:06 | 55.50191 | 10.46523 | 36987 ft | 484 kts | 46° |
| 2026-05-04 12:06 | 55.54600 | 10.55502 | 36982 ft | 484 kts | 46° |
| 2026-05-04 12:07 | 55.59003 | 10.64503 | 36965 ft | 484 kts | 47° |
| 2026-05-04 12:07 | 55.63405 | 10.73542 | 36962 ft | 484 kts | 47° |
| 2026-05-04 12:08 | 55.67802 | 10.82577 | 36964 ft | 484 kts | 47° |
| 2026-05-04 12:08 | 55.72193 | 10.91619 | 36960 ft | 484 kts | 47° |
| 2026-05-04 12:09 | 55.76585 | 11.00704 | 36964 ft | 484 kts | 47° |
| 2026-05-04 12:09 | 55.80955 | 11.09799 | 36981 ft | 485 kts | 47° |
| 2026-05-04 12:10 | 55.84593 | 11.17390 | 36974 ft | 484 kts | 47° |
| 2026-05-04 12:10 | 55.88953 | 11.26530 | 36970 ft | 484 kts | 47° |
| 2026-05-04 12:11 | 55.93310 | 11.35689 | 36956 ft | 484 kts | 47° |
| 2026-05-04 12:11 | 55.97663 | 11.44861 | 36936 ft | 484 kts | 47° |
| 2026-05-04 12:12 | 56.02008 | 11.54076 | 36925 ft | 485 kts | 47° |
| 2026-05-04 12:12 | 56.06358 | 11.63327 | 36956 ft | 486 kts | 47° |
| 2026-05-04 12:14 | 56.23623 | 12.00394 | 36932 ft | 487 kts | 47° |
| 2026-05-04 12:15 | 56.27948 | 12.09767 | 36944 ft | 487 kts | 47° |
| 2026-05-04 12:15 | 56.32269 | 12.19165 | 36926 ft | 487 kts | 48° |
| 2026-05-04 12:16 | 56.36586 | 12.28594 | 36925 ft | 488 kts | 48° |
| 2026-05-04 12:16 | 56.40895 | 12.38055 | 36927 ft | 488 kts | 48° |
| 2026-05-04 12:17 | 56.45196 | 12.47539 | 36924 ft | 488 kts | 48° |
| 2026-05-04 12:17 | 56.49494 | 12.57041 | 36950 ft | 488 kts | 48° |
| 2026-05-04 12:18 | 56.53789 | 12.66560 | 36949 ft | 488 kts | 48° |
| 2026-05-04 12:18 | 56.58070 | 12.76114 | 36937 ft | 488 kts | 48° |
| 2026-05-04 12:19 | 56.62342 | 12.85690 | 36929 ft | 488 kts | 48° |
| 2026-05-04 12:19 | 56.66618 | 12.95282 | 36914 ft | 488 kts | 49° |
| 2026-05-04 12:20 | 56.70889 | 13.04893 | 36931 ft | 489 kts | 49° |
| 2026-05-04 12:20 | 56.75165 | 13.14569 | 36887 ft | 490 kts | 49° |
| 2026-05-04 12:21 | 56.79429 | 13.24274 | 36869 ft | 490 kts | 49° |
| 2026-05-04 12:21 | 56.83693 | 13.34010 | 36868 ft | 491 kts | 49° |
| 2026-05-04 12:22 | 56.87927 | 13.43708 | 36858 ft | 491 kts | 49° |
| 2026-05-04 12:22 | 56.92175 | 13.53498 | 36889 ft | 491 kts | 49° |
| 2026-05-04 12:23 | 56.96419 | 13.63315 | 36870 ft | 491 kts | 49° |
| 2026-05-04 12:23 | 57.00663 | 13.73149 | 36846 ft | 491 kts | 49° |
| 2026-05-04 12:24 | 57.04895 | 13.82996 | 36842 ft | 492 kts | 50° |
| 2026-05-04 12:24 | 57.09110 | 13.92865 | 36830 ft | 492 kts | 50° |
| 2026-05-04 12:25 | 57.13341 | 14.02768 | 36826 ft | 492 kts | 50° |
| 2026-05-04 12:25 | 57.17554 | 14.12704 | 36840 ft | 492 kts | 50° |
| 2026-05-04 12:26 | 57.21747 | 14.22669 | 36825 ft | 492 kts | 50° |
| 2026-05-04 12:26 | 57.25943 | 14.32655 | 36818 ft | 492 kts | 50° |
| 2026-05-04 12:27 | 57.30134 | 14.42657 | 36814 ft | 492 kts | 50° |
| 2026-05-04 12:27 | 57.34315 | 14.52684 | 36786 ft | 493 kts | 50° |
| 2026-05-04 12:28 | 57.38499 | 14.62760 | 36811 ft | 493 kts | 50° |
| 2026-05-04 12:28 | 57.42681 | 14.72855 | 36788 ft | 494 kts | 50° |
| 2026-05-04 12:29 | 57.46863 | 14.83014 | 36782 ft | 495 kts | 51° |
| 2026-05-04 12:29 | 57.51026 | 14.93197 | 36772 ft | 495 kts | 51° |
| 2026-05-04 12:30 | 57.55189 | 15.03406 | 36774 ft | 495 kts | 51° |
| 2026-05-04 12:30 | 57.59350 | 15.13637 | 36800 ft | 496 kts | 51° |
| 2026-05-04 12:31 | 57.63513 | 15.23897 | 36789 ft | 496 kts | 51° |
| 2026-05-04 12:31 | 57.67638 | 15.34137 | 36755 ft | 497 kts | 51° |
| 2026-05-04 12:32 | 57.73854 | 15.49661 | 36757 ft | 497 kts | 51° |
| 2026-05-04 12:33 | 57.77995 | 15.60026 | 36758 ft | 497 kts | 51° |
| 2026-05-04 12:33 | 57.82125 | 15.70426 | 36759 ft | 497 kts | 52° |
| 2026-05-04 12:34 | 57.86240 | 15.80857 | 36754 ft | 497 kts | 52° |
| 2026-05-04 12:34 | 57.90459 | 15.91132 | 36755 ft | 495 kts | 44° |
| 2026-05-04 12:35 | 57.95637 | 15.99510 | 36754 ft | 491 kts | 34° |
| 2026-05-04 12:35 | 58.01026 | 16.07456 | 36762 ft | 491 kts | 35° |
| 2026-05-04 12:36 | 58.06392 | 16.15456 | 36671 ft | 493 kts | 35° |
| 2026-05-04 12:36 | 58.09083 | 16.19482 | 36416 ft | 493 kts | 35° |
| 2026-05-04 12:36 | 58.11772 | 16.23505 | 36161 ft | 493 kts | 35° |
| 2026-05-04 12:36 | 58.14465 | 16.27543 | 35903 ft | 493 kts | 35° |
| 2026-05-04 12:37 | 58.17159 | 16.31593 | 35143 ft | 499 kts | 35° |
| 2026-05-04 12:37 | 58.19899 | 16.35715 | 34237 ft | 506 kts | 35° |
| 2026-05-04 12:37 | 58.22675 | 16.39902 | 33203 ft | 513 kts | 35° |
| 2026-05-04 12:37 | 58.25472 | 16.44134 | 32388 ft | 514 kts | 36° |
| 2026-05-04 12:38 | 58.28104 | 16.48777 | 31604 ft | 518 kts | 45° |
| 2026-05-04 12:38 | 58.30360 | 16.54080 | 31063 ft | 513 kts | 52° |
| 2026-05-04 12:38 | 58.32442 | 16.59450 | 30476 ft | 509 kts | 52° |
| 2026-05-04 12:38 | 58.34544 | 16.64839 | 29894 ft | 505 kts | 52° |
| 2026-05-04 12:39 | 58.36621 | 16.70151 | 29251 ft | 500 kts | 51° |
| 2026-05-04 12:39 | 58.38686 | 16.75435 | 28682 ft | 494 kts | 51° |
| 2026-05-04 12:39 | 58.40718 | 16.80651 | 28119 ft | 488 kts | 51° |
| 2026-05-04 12:39 | 58.42728 | 16.85825 | 27549 ft | 482 kts | 51° |
| 2026-05-04 12:40 | 58.44705 | 16.90935 | 26988 ft | 477 kts | 52° |
| 2026-05-04 12:40 | 58.46661 | 16.96011 | 26441 ft | 472 kts | 52° |
| 2026-05-04 12:40 | 58.48590 | 17.01037 | 25916 ft | 467 kts | 52° |
| 2026-05-04 12:40 | 58.50508 | 17.06035 | 25368 ft | 463 kts | 52° |
| 2026-05-04 12:41 | 58.52396 | 17.10966 | 24836 ft | 458 kts | 52° |
| 2026-05-04 12:41 | 58.54267 | 17.15861 | 24370 ft | 453 kts | 52° |
| 2026-05-04 12:41 | 58.56116 | 17.20705 | 23886 ft | 449 kts | 52° |
| 2026-05-04 12:41 | 58.57954 | 17.25535 | 23409 ft | 446 kts | 52° |
| 2026-05-04 12:42 | 58.59770 | 17.30320 | 22915 ft | 442 kts | 52° |
| 2026-05-04 12:42 | 58.61569 | 17.35067 | 22471 ft | 437 kts | 52° |
| 2026-05-04 12:42 | 58.63345 | 17.39760 | 22014 ft | 433 kts | 52° |
| 2026-05-04 12:42 | 58.65102 | 17.44406 | 21551 ft | 428 kts | 52° |
| 2026-05-04 12:43 | 58.66847 | 17.49020 | 21080 ft | 424 kts | 52° |
| 2026-05-04 12:43 | 58.68569 | 17.53582 | 20617 ft | 420 kts | 52° |
| 2026-05-04 12:43 | 58.70279 | 17.58130 | 20132 ft | 418 kts | 52° |
| 2026-05-04 12:43 | 58.71971 | 17.62643 | 19649 ft | 415 kts | 52° |
| 2026-05-04 12:44 | 58.73650 | 17.67130 | 19153 ft | 412 kts | 52° |
| 2026-05-04 12:44 | 58.75315 | 17.71592 | 18654 ft | 409 kts | 52° |
| 2026-05-04 12:44 | 58.76968 | 17.76038 | 18154 ft | 407 kts | 52° |
| 2026-05-04 12:44 | 58.78608 | 17.80464 | 17602 ft | 405 kts | 52° |
| 2026-05-04 12:45 | 58.80289 | 17.84707 | 17113 ft | 399 kts | 45° |
| 2026-05-04 12:45 | 58.82284 | 17.88342 | 16622 ft | 390 kts | 33° |
| 2026-05-04 12:45 | 58.84519 | 17.91173 | 16353 ft | 382 kts | 23° |
| 2026-05-04 12:45 | 58.86898 | 17.93442 | 16050 ft | 380 kts | 20° |
| 2026-05-04 12:46 | 58.89265 | 17.95672 | 15748 ft | 379 kts | 20° |
| 2026-05-04 12:46 | 58.91629 | 17.97913 | 15446 ft | 377 kts | 21° |
| 2026-05-04 12:46 | 58.93976 | 18.00147 | 15140 ft | 375 kts | 21° |
| 2026-05-04 12:46 | 58.96315 | 18.02374 | 14847 ft | 374 kts | 21° |
| 2026-05-04 12:47 | 58.98641 | 18.04586 | 14549 ft | 372 kts | 21° |
| 2026-05-04 12:47 | 59.00959 | 18.06787 | 14259 ft | 370 kts | 21° |
| 2026-05-04 12:47 | 59.03264 | 18.08981 | 13954 ft | 368 kts | 21° |
| 2026-05-04 12:47 | 59.05559 | 18.11171 | 13661 ft | 367 kts | 21° |
| 2026-05-04 12:48 | 59.07847 | 18.13335 | 13351 ft | 363 kts | 19° |
| 2026-05-04 12:48 | 59.10209 | 18.14899 | 13046 ft | 355 kts | 7° |
| 2026-05-04 12:48 | 59.12593 | 18.15556 | 12783 ft | 347 kts | 356° |
| 2026-05-04 12:48 | 59.14997 | 18.15807 | 12496 ft | 345 kts | 356° |
| 2026-05-04 12:49 | 59.17387 | 18.16069 | 12218 ft | 344 kts | 357° |
| 2026-05-04 12:49 | 59.19768 | 18.16344 | 11972 ft | 342 kts | 357° |
| 2026-05-04 12:49 | 59.22136 | 18.16627 | 11688 ft | 340 kts | 357° |
| 2026-05-04 12:49 | 59.24496 | 18.16914 | 11418 ft | 338 kts | 358° |
| 2026-05-04 12:50 | 59.26818 | 18.17199 | 11151 ft | 337 kts | 358° |
| 2026-05-04 12:50 | 59.29181 | 18.17484 | 10880 ft | 335 kts | 358° |
| 2026-05-04 12:50 | 59.31473 | 18.17758 | 10621 ft | 333 kts | 358° |
| 2026-05-04 12:50 | 59.33781 | 18.18031 | 10355 ft | 332 kts | 358° |
| 2026-05-04 12:51 | 59.36073 | 18.18300 | 10089 ft | 329 kts | 358° |
| 2026-05-04 12:51 | 59.38320 | 18.18571 | 9950 ft | 318 kts | 358° |
| 2026-05-04 12:51 | 59.40499 | 18.18838 | 9823 ft | 308 kts | 357° |
| 2026-05-04 12:51 | 59.42605 | 18.19095 | 9655 ft | 300 kts | 357° |
| 2026-05-04 12:52 | 59.44668 | 18.19341 | 9464 ft | 294 kts | 357° |
| 2026-05-04 12:52 | 59.46708 | 18.19579 | 9255 ft | 292 kts | 357° |
| 2026-05-04 12:52 | 59.48079 | 18.19739 | 9082 ft | 292 kts | 357° |
| 2026-05-04 12:52 | 59.50099 | 18.19977 | 8812 ft | 291 kts | 357° |
| 2026-05-04 12:53 | 59.52125 | 18.20215 | 8299 ft | 296 kts | 358° |
| 2026-05-04 12:53 | 59.54158 | 18.20469 | 8031 ft | 291 kts | 358° |
| 2026-05-04 12:53 | 59.56174 | 18.20718 | 7696 ft | 289 kts | 358° |
| 2026-05-04 12:53 | 59.58182 | 18.20953 | 7365 ft | 289 kts | 358° |
| 2026-05-04 12:54 | 59.60182 | 18.21179 | 7036 ft | 287 kts | 358° |
| 2026-05-04 12:54 | 59.62178 | 18.21392 | 6711 ft | 286 kts | 358° |
| 2026-05-04 12:54 | 59.64156 | 18.21597 | 6384 ft | 282 kts | 358° |
| 2026-05-04 12:54 | 59.66091 | 18.21801 | 6066 ft | 276 kts | 358° |
| 2026-05-04 12:55 | 59.67993 | 18.22001 | 5722 ft | 273 kts | 358° |
| 2026-05-04 12:55 | 59.69882 | 18.22189 | 5383 ft | 271 kts | 358° |
| 2026-05-04 12:55 | 59.71765 | 18.22365 | 5041 ft | 270 kts | 358° |
| 2026-05-04 12:55 | 59.73643 | 18.22537 | 4713 ft | 271 kts | 358° |
| 2026-05-04 12:56 | 59.75526 | 18.22705 | 4437 ft | 269 kts | 358° |
| 2026-05-04 12:56 | 59.77370 | 18.22872 | 4288 ft | 261 kts | 358° |
| 2026-05-04 12:56 | 59.79151 | 18.23025 | 4174 ft | 251 kts | 358° |
| 2026-05-04 12:56 | 59.80854 | 18.23160 | 4042 ft | 238 kts | 358° |
| 2026-05-04 12:57 | 59.82465 | 18.23295 | 3910 ft | 225 kts | 357° |
| 2026-05-04 12:57 | 59.83936 | 18.22838 | 3713 ft | 206 kts | 327° |
| 2026-05-04 12:57 | 59.84900 | 18.20975 | 3591 ft | 188 kts | 295° |
| 2026-05-04 12:57 | 59.85436 | 18.18677 | 3443 ft | 179 kts | 284° |
| 2026-05-04 12:58 | 59.85449 | 18.16315 | 3250 ft | 171 kts | 255° |
| 2026-05-04 12:58 | 59.85070 | 18.14082 | 3057 ft | 170 kts | 249° |
| 2026-05-04 12:58 | 59.84633 | 18.11884 | 2981 ft | 172 kts | 248° |
| 2026-05-04 12:58 | 59.84187 | 18.09672 | 2972 ft | 173 kts | 248° |
| 2026-05-04 12:59 | 59.83741 | 18.07455 | 2968 ft | 173 kts | 248° |
| 2026-05-04 12:59 | 59.83297 | 18.05248 | 2967 ft | 172 kts | 246° |
| 2026-05-04 12:59 | 59.82619 | 18.03296 | 2976 ft | 173 kts | 225° |
| 2026-05-04 12:59 | 59.81611 | 18.02063 | 2966 ft | 166 kts | 203° |
| 2026-05-04 13:00 | 59.80504 | 18.01592 | 2948 ft | 160 kts | 196° |
| 2026-05-04 13:00 | 59.79418 | 18.01193 | 2924 ft | 159 kts | 196° |
| 2026-05-04 13:00 | 59.78336 | 18.00795 | 2790 ft | 157 kts | 195° |
| 2026-05-04 13:00 | 59.77263 | 18.00402 | 2601 ft | 157 kts | 196° |
| 2026-05-04 13:01 | 59.76189 | 18.00008 | 2430 ft | 157 kts | 195° |
| 2026-05-04 13:01 | 59.75118 | 17.99617 | 2222 ft | 156 kts | 195° |
| 2026-05-04 13:01 | 59.74057 | 17.99230 | 2011 ft | 154 kts | 195° |
| 2026-05-04 13:01 | 59.72998 | 17.98843 | 1797 ft | 156 kts | 195° |
| 2026-05-04 13:02 | 59.71930 | 17.98453 | 1580 ft | 155 kts | 195° |
| 2026-05-04 13:02 | 59.70876 | 17.98070 | 1404 ft | 152 kts | 195° |
| 2026-05-04 13:02 | 59.69899 | 17.97718 | 1184 ft | 135 kts | 196° |
| 2026-05-04 13:02 | 59.68995 | 17.97390 | 980 ft | 130 kts | 195° |
| 2026-05-04 13:03 | 59.68109 | 17.97080 | 801 ft | 128 kts | 194° |
| 2026-05-04 13:03 | 59.67238 | 17.96781 | 652 ft | 127 kts | 194° |
| 2026-05-04 13:03 | 59.66381 | 17.96419 | 457 ft | 125 kts | 194° |
| 2026-05-04 13:03 | 59.65521 | 17.96120 | 290 ft | 126 kts | 191° |
| 2026-05-04 13:04 | 59.64661 | 17.95810 | 117 ft | 125 kts | 193° |
| 2026-05-04 13:04 | 59.63955 | 17.95552 | 113 ft | 67 kts | 189° |
| 2026-05-04 13:04 | 59.63639 | 17.95438 | 117 ft | 40 kts | 191° |
| 2026-05-04 13:04 | 59.63400 | 17.95287 | 119 ft | 34 kts | 212° |
| 2026-05-04 13:05 | 59.63266 | 17.95074 | 121 ft | 14 kts | 222° |
| 2026-05-04 13:05 | 59.63267 | 17.94916 | 121 ft | 14 kts | 329° |
| 2026-05-04 13:05 | 59.63377 | 17.94937 | 121 ft | 19 kts | 11° |
| 2026-05-04 13:05 | 59.63521 | 17.94993 | 116 ft | 24 kts | 11° |
| 2026-05-04 13:06 | 59.63701 | 17.95053 | 112 ft | 29 kts | 10° |
| 2026-05-04 13:06 | 59.63910 | 17.95130 | 109 ft | 32 kts | 11° |
| 2026-05-04 13:06 | 59.64114 | 17.95205 | 108 ft | 22 kts | 11° |
| 2026-05-04 13:06 | 59.64215 | 17.95238 | 107 ft | 0 kts | 8° |
| 2026-05-04 13:07 | 59.64228 | 17.95237 | 107 ft | 4 kts | 359° |
| 2026-05-04 13:07 | 59.64272 | 17.95226 | 104 ft | 9 kts | 345° |
| 2026-05-04 13:07 | 59.64338 | 17.95157 | 105 ft | 13 kts | 319° |
| 2026-05-04 13:07 | 59.64395 | 17.94995 | 102 ft | 16 kts | 289° |
| 2026-05-04 13:08 | 59.64392 | 17.94752 | 103 ft | 19 kts | 249° |
| 2026-05-04 13:08 | 59.64319 | 17.94508 | 103 ft | 22 kts | 237° |
| 2026-05-04 13:08 | 59.64232 | 17.94237 | 104 ft | 24 kts | 238° |
| 2026-05-04 13:08 | 59.64143 | 17.93959 | 108 ft | 24 kts | 238° |
| 2026-05-04 13:09 | 59.64054 | 17.93680 | 112 ft | 24 kts | 238° |
| 2026-05-04 13:09 | 59.63988 | 17.93395 | 112 ft | 22 kts | 266° |
| 2026-05-04 13:09 | 59.64023 | 17.93164 | 111 ft | 13 kts | 297° |
| 2026-05-04 13:09 | 59.64070 | 17.92985 | 110 ft | 16 kts | 298° |
| 2026-05-04 13:10 | 59.64123 | 17.92859 | 112 ft | 11 kts | 357° |
| 2026-05-04 13:10 | 59.64199 | 17.92841 | 113 ft | 13 kts | 304° |
| 2026-05-04 13:10 | 59.64249 | 17.92736 | 113 ft | 10 kts | 11° |
| 2026-05-04 13:10 | 59.64311 | 17.92819 | 111 ft | 8 kts | 36° |
| 2026-05-04 13:11 | 59.64342 | 17.92863 | 111 ft | 2 kts | 35° |
| 2026-05-04 13:11 | 59.64346 | 17.92868 | 112 ft | 0 kts | 35° |